createdAt,value
2022-08-24T00:00:37.817Z,55.92
2022-08-24T00:03:05.564Z,55.95
2022-08-24T00:05:34.883Z,56.21
2022-08-24T00:08:02.771Z,56.75
2022-08-24T00:10:30.509Z,56.91
2022-08-24T00:12:58.965Z,56.80
2022-08-24T00:15:26.911Z,56.83
2022-08-24T00:17:54.542Z,57.07
2022-08-24T00:20:22.167Z,57.82
2022-08-24T00:22:51.502Z,58.04
2022-08-24T00:25:20.440Z,58.30
2022-08-24T00:27:48.445Z,58.47
2022-08-24T00:30:18.460Z,58.53
2022-08-24T00:32:47.687Z,58.41
2022-08-24T00:35:18.299Z,58.64
2022-08-24T00:37:46.870Z,58.16
2022-08-24T00:40:19.206Z,58.16
2022-08-24T00:42:47.956Z,58.59
2022-08-24T00:45:17.134Z,59.10
2022-08-24T00:47:49.517Z,59.52
2022-08-24T00:50:20.924Z,59.78
2022-08-24T00:52:52.655Z,59.83
2022-08-24T00:55:24.794Z,59.58
2022-08-24T00:57:55.559Z,59.64
2022-08-24T01:00:27.460Z,59.58
2022-08-24T01:02:58.676Z,59.57
2022-08-24T01:05:26.363Z,59.66
2022-08-24T01:07:54.258Z,60.06
2022-08-24T01:10:25.931Z,60.12
2022-08-24T01:13:00.786Z,60.47
2022-08-24T01:15:29.737Z,60.77
2022-08-24T01:18:15.125Z,60.57
2022-08-24T01:20:44.088Z,60.78
2022-08-24T01:23:14.945Z,61.22
2022-08-24T01:25:44.958Z,60.73
2022-08-24T01:28:16.906Z,60.58
2022-08-24T01:30:51.148Z,60.78
2022-08-24T01:33:25.424Z,61.03
2022-08-24T01:35:56.138Z,60.77
2022-08-24T01:38:23.828Z,60.04
2022-08-24T01:40:56.445Z,60.49
2022-08-24T01:43:24.340Z,60.48
2022-08-24T01:45:52.164Z,60.71
2022-08-24T01:48:22.989Z,60.76
2022-08-24T01:50:51.093Z,60.82
2022-08-24T01:53:19.922Z,60.66
2022-08-24T01:55:48.521Z,60.94
2022-08-24T01:58:17.471Z,60.72
2022-08-24T02:00:45.902Z,61.05
2022-08-24T02:03:13.664Z,61.24
2022-08-24T02:05:41.369Z,61.47
2022-08-24T02:08:09.008Z,61.54
2022-08-24T02:10:36.658Z,61.67
2022-08-24T02:13:04.747Z,61.99
2022-08-24T02:15:38.079Z,62.03
2022-08-24T02:18:05.838Z,62.10
2022-08-24T02:20:36.493Z,62.46
2022-08-24T02:23:06.585Z,62.30
2022-08-24T02:25:34.487Z,62.66
2022-08-24T02:28:02.623Z,62.19
2022-08-24T02:30:31.161Z,62.44
2022-08-24T02:33:01.158Z,62.67
2022-08-24T02:35:30.922Z,62.72
2022-08-24T02:37:58.768Z,62.71
2022-08-24T02:40:27.112Z,62.61
2022-08-24T02:42:55.614Z,62.11
2022-08-24T02:45:23.849Z,62.41
2022-08-24T02:47:51.636Z,62.53
2022-08-24T02:50:20.683Z,62.76
2022-08-24T02:52:48.599Z,62.97
2022-08-24T02:55:19.965Z,62.65
2022-08-24T02:57:48.818Z,62.48
2022-08-24T03:00:19.272Z,62.63
2022-08-24T03:02:46.960Z,62.57
2022-08-24T03:05:15.355Z,63.06
2022-08-24T03:07:44.636Z,63.23
2022-08-24T03:10:12.525Z,63.29
2022-08-24T03:12:40.598Z,63.48
2022-08-24T03:15:10.497Z,63.81
2022-08-24T03:17:39.875Z,63.39
2022-08-24T03:20:11.705Z,63.78
2022-08-24T03:22:39.789Z,64.01
2022-08-24T03:25:10.238Z,64.31
2022-08-24T03:27:37.950Z,64.35
2022-08-24T03:30:06.789Z,64.40
2022-08-24T03:32:35.410Z,64.10
2022-08-24T03:35:04.431Z,64.21
2022-08-24T03:37:32.847Z,64.45
2022-08-24T03:40:00.939Z,64.98
2022-08-24T03:42:29.976Z,65.03
2022-08-24T03:44:57.564Z,65.17
2022-08-24T03:47:25.284Z,65.35
2022-08-24T03:49:53.387Z,65.25
2022-08-24T03:52:21.129Z,65.38
2022-08-24T03:54:49.642Z,65.38
2022-08-24T03:57:17.378Z,65.76
2022-08-24T03:59:46.599Z,65.88
2022-08-24T04:02:14.708Z,65.98
2022-08-24T04:04:43.232Z,65.73
2022-08-24T04:07:11.990Z,65.86
2022-08-24T04:09:39.714Z,66.52
2022-08-24T04:12:07.644Z,66.31
2022-08-24T04:14:35.333Z,66.22
2022-08-24T04:17:05.455Z,66.38
2022-08-24T04:19:34.759Z,66.54
2022-08-24T04:22:02.408Z,66.55
2022-08-24T04:24:30.115Z,66.13
2022-08-24T04:26:57.753Z,66.20
2022-08-24T04:29:25.516Z,66.64
2022-08-24T04:31:53.443Z,67.01
2022-08-24T04:34:22.547Z,67.04
2022-08-24T04:36:50.156Z,67.17
2022-08-24T04:39:17.802Z,67.25
2022-08-24T04:41:45.423Z,67.43
2022-08-24T04:44:14.021Z,67.39
2022-08-24T04:46:41.680Z,67.44
2022-08-24T04:49:09.420Z,67.93
2022-08-24T04:51:38.941Z,68.15
2022-08-24T04:54:07.919Z,67.64
2022-08-24T04:56:36.068Z,67.88
2022-08-24T04:59:04.736Z,68.42
2022-08-24T05:01:33.622Z,68.00
2022-08-24T05:04:01.915Z,67.97
2022-08-24T05:06:32.624Z,67.98
2022-08-24T05:09:02.478Z,68.28
2022-08-24T05:11:30.249Z,67.48
2022-08-24T05:13:59.152Z,68.21
2022-08-24T05:16:27.689Z,68.28
2022-08-24T05:18:55.940Z,67.88
2022-08-24T05:21:25.761Z,67.76
2022-08-24T05:23:53.659Z,67.54
2022-08-24T05:26:25.020Z,67.59
2022-08-24T05:28:54.640Z,68.50
2022-08-24T05:31:24.279Z,68.44
2022-08-24T05:33:52.579Z,68.81
2022-08-24T05:36:22.266Z,68.79
2022-08-24T05:38:51.440Z,69.18
2022-08-24T05:41:19.110Z,69.56
2022-08-24T05:43:48.186Z,69.63
2022-08-24T05:46:16.721Z,69.67
2022-08-24T05:48:52.450Z,69.59
2022-08-24T05:51:20.399Z,69.64
2022-08-24T05:53:48.197Z,69.83
2022-08-24T05:56:18.101Z,69.92
2022-08-24T05:58:45.943Z,69.89
2022-08-24T06:01:18.040Z,69.73
2022-08-24T06:03:46.579Z,70.12
2022-08-24T06:06:14.867Z,69.64
2022-08-24T06:08:44.276Z,69.21
2022-08-24T06:11:12.462Z,69.50
2022-08-24T06:13:41.093Z,69.25
2022-08-24T06:16:26.653Z,69.56
2022-08-24T06:18:56.059Z,69.74
2022-08-24T06:21:28.200Z,69.62
2022-08-24T06:23:56.816Z,69.03
2022-08-24T06:26:42.280Z,70.08
2022-08-24T06:29:10.772Z,69.55
2022-08-24T06:31:41.871Z,68.96
2022-08-24T06:34:13.774Z,69.13
2022-08-24T06:36:41.821Z,69.61
2022-08-24T06:39:10.920Z,68.83
2022-08-24T06:41:39.371Z,68.88
2022-08-24T06:44:07.965Z,69.17
2022-08-24T06:46:36.693Z,69.15
2022-08-24T06:49:04.885Z,69.04
2022-08-24T06:51:33.979Z,68.88
2022-08-24T06:54:01.658Z,69.74
2022-08-24T06:56:29.362Z,68.65
2022-08-24T06:58:57.126Z,68.90
2022-08-24T07:01:27.364Z,68.94
2022-08-24T07:03:55.392Z,67.87
2022-08-24T07:06:23.581Z,68.31
2022-08-24T07:08:53.270Z,68.23
2022-08-24T07:11:22.016Z,67.91
2022-08-24T07:13:50.616Z,67.90
2022-08-24T07:16:20.382Z,68.07
2022-08-24T07:18:50.225Z,67.68
2022-08-24T07:21:19.380Z,66.99
2022-08-24T07:23:47.728Z,67.18
2022-08-24T07:26:21.938Z,66.99
2022-08-24T07:28:50.578Z,66.92
2022-08-24T07:31:18.300Z,66.74
2022-08-24T07:33:46.091Z,65.49
2022-08-24T07:36:21.892Z,65.07
2022-08-24T07:38:52.235Z,64.28
2022-08-24T07:44:11.222Z,64.75
2022-08-24T07:46:40.062Z,64.50
2022-08-24T07:49:21.588Z,63.73
2022-08-24T07:51:55.880Z,63.57
2022-08-24T07:54:23.548Z,63.27
2022-08-24T07:56:52.676Z,62.68
2022-08-24T07:59:20.346Z,62.67
2022-08-24T08:01:48.161Z,62.95
2022-08-24T08:04:16.295Z,61.79
2022-08-24T08:06:44.369Z,62.07
2022-08-24T08:09:12.086Z,61.36
2022-08-24T08:11:39.814Z,60.70
2022-08-24T08:14:08.982Z,61.08
2022-08-24T08:16:38.401Z,61.32
2022-08-24T08:19:10.058Z,59.97
2022-08-24T08:22:00.103Z,59.17
2022-08-24T08:24:27.860Z,58.27
2022-08-24T08:26:55.509Z,59.19
2022-08-24T08:29:25.333Z,59.15
2022-08-24T08:31:53.308Z,57.51
2022-08-24T08:34:21.311Z,57.65
2022-08-24T08:36:49.689Z,56.98
2022-08-24T08:39:18.893Z,55.84
2022-08-24T08:42:19.992Z,55.88
2022-08-24T08:45:14.845Z,55.36
2022-08-24T08:50:45.406Z,55.06
2022-08-24T08:53:35.795Z,54.68
2022-08-24T08:56:08.116Z,53.80
2022-08-24T08:58:53.736Z,54.42
2022-08-24T09:01:33.252Z,53.89
2022-08-24T09:04:22.267Z,52.93
2022-08-24T09:06:59.295Z,52.43
2022-08-24T09:09:45.900Z,52.96
2022-08-24T09:12:17.743Z,51.57
2022-08-24T09:14:57.724Z,51.87
2022-08-24T09:17:53.204Z,51.96
2022-08-24T09:20:30.464Z,52.56
2022-08-24T09:23:06.100Z,52.11
2022-08-24T09:25:43.385Z,52.31
2022-08-24T09:28:18.242Z,52.12
2022-08-24T09:31:12.367Z,51.32
2022-08-24T09:33:47.432Z,51.31
2022-08-24T09:36:20.044Z,51.27
2022-08-24T09:39:00.239Z,50.87
2022-08-24T09:42:01.361Z,50.04
2022-08-24T09:45:03.376Z,50.26
2022-08-24T09:48:06.934Z,50.08
2022-08-24T09:51:03.139Z,50.10
2022-08-24T09:54:04.976Z,50.59
2022-08-24T09:56:59.808Z,49.57
2022-08-24T10:00:01.978Z,49.95
2022-08-24T10:02:49.406Z,49.90
2022-08-24T10:05:26.674Z,49.31
2022-08-24T10:08:05.173Z,49.14
2022-08-24T10:10:39.875Z,49.52
2022-08-24T10:13:17.396Z,50.14
2022-08-24T10:15:51.781Z,49.39
2022-08-24T10:18:42.263Z,49.03
2022-08-24T10:21:26.277Z,47.67
2022-08-24T10:24:14.541Z,47.44
2022-08-24T10:27:05.510Z,47.69
2022-08-24T10:29:43.902Z,47.34
2022-08-24T10:32:22.350Z,47.18
2022-08-24T10:35:00.213Z,47.26
2022-08-24T10:37:43.611Z,47.06
2022-08-24T10:40:31.677Z,46.97
2022-08-24T10:43:36.105Z,47.51
2022-08-24T10:46:38.259Z,47.15
2022-08-24T10:49:33.195Z,47.32
2022-08-24T10:52:24.719Z,46.86
2022-08-24T10:54:52.869Z,45.41
2022-08-24T10:57:28.790Z,45.87
2022-08-24T11:00:02.020Z,45.90
2022-08-24T11:02:33.978Z,44.91
2022-08-24T11:05:03.330Z,44.93
2022-08-24T11:07:31.100Z,44.09
2022-08-24T11:10:01.727Z,43.75
2022-08-24T11:12:32.466Z,44.10
2022-08-24T11:15:02.995Z,44.80
2022-08-24T11:17:34.767Z,45.21
2022-08-24T11:20:02.900Z,43.66
2022-08-24T11:22:40.832Z,43.57
2022-08-24T11:25:14.989Z,42.97
2022-08-24T11:27:47.217Z,43.27
2022-08-24T11:30:23.999Z,42.88
2022-08-24T11:32:55.014Z,42.96
2022-08-24T11:35:26.104Z,43.59
2022-08-24T11:37:56.046Z,44.08
2022-08-24T11:40:30.465Z,42.68
2022-08-24T11:43:17.758Z,42.13
2022-08-24T11:45:50.433Z,41.95
2022-08-24T11:48:29.717Z,42.94
2022-08-24T11:51:00.748Z,42.68
2022-08-24T11:56:20.398Z,41.66
2022-08-24T11:58:56.307Z,41.53
2022-08-24T12:01:27.628Z,41.14
2022-08-24T12:04:08.011Z,40.61
2022-08-24T12:06:45.005Z,40.54
2022-08-24T12:09:22.176Z,40.93
2022-08-24T12:11:54.753Z,40.34
2022-08-24T12:14:30.545Z,39.19
2022-08-24T12:17:02.955Z,39.54
2022-08-24T12:19:32.547Z,40.05
2022-08-24T12:22:06.171Z,40.14
2022-08-24T12:24:37.066Z,39.89
2022-08-24T12:27:10.688Z,40.00
2022-08-24T12:29:43.476Z,39.86
2022-08-24T12:32:15.049Z,39.96
2022-08-24T12:34:50.635Z,40.40
2022-08-24T12:37:23.580Z,39.89
2022-08-24T12:39:56.747Z,39.69
2022-08-24T12:42:28.263Z,39.95
2022-08-24T12:45:05.217Z,39.60
2022-08-24T12:47:37.243Z,40.04
2022-08-24T12:50:08.651Z,40.45
2022-08-24T12:52:56.110Z,39.60
2022-08-24T12:55:36.766Z,39.90
2022-08-24T12:58:31.035Z,40.23
2022-08-24T13:00:59.841Z,40.36
2022-08-24T13:03:33.386Z,40.59
2022-08-24T13:06:04.973Z,40.12
2022-08-24T13:08:36.480Z,40.44
2022-08-24T13:11:07.174Z,40.25
2022-08-24T13:13:45.117Z,40.38
2022-08-24T13:16:51.473Z,40.44
2022-08-24T13:19:34.165Z,40.34
2022-08-24T13:22:40.004Z,40.17
2022-08-24T13:25:27.837Z,40.19
2022-08-24T13:28:06.841Z,40.30
2022-08-24T13:31:06.876Z,40.68
2022-08-24T13:33:38.480Z,39.58
2022-08-24T13:36:09.916Z,39.88
2022-08-24T13:39:02.001Z,39.29
2022-08-24T13:41:44.035Z,39.55
2022-08-24T13:44:22.399Z,39.82
2022-08-24T13:46:55.219Z,40.29
2022-08-24T13:49:32.330Z,39.87
2022-08-24T13:52:11.778Z,40.09
2022-08-24T13:54:46.891Z,39.96
2022-08-24T13:57:27.762Z,39.68
2022-08-24T14:00:10.846Z,39.81
2022-08-24T14:02:53.911Z,38.78
2022-08-24T14:05:29.058Z,39.41
2022-08-24T14:08:05.802Z,38.94
2022-08-24T14:10:45.408Z,38.81
2022-08-24T14:13:26.560Z,38.69
2022-08-24T14:16:12.833Z,39.28
2022-08-24T14:18:51.803Z,39.05
2022-08-24T14:21:22.147Z,39.37
2022-08-24T14:23:56.224Z,39.43
2022-08-24T14:26:57.262Z,39.40
2022-08-24T14:29:36.070Z,39.75
2022-08-24T14:32:38.295Z,39.66
2022-08-24T14:35:18.745Z,39.98
2022-08-24T14:37:57.038Z,40.26
2022-08-24T14:40:34.889Z,39.47
2022-08-24T14:43:21.777Z,39.89
2022-08-24T14:45:56.598Z,39.12
2022-08-24T14:48:32.462Z,39.78
2022-08-24T14:51:10.398Z,39.24
2022-08-24T14:53:52.680Z,38.97
2022-08-24T14:56:31.657Z,39.41
2022-08-24T14:59:05.138Z,39.29
2022-08-24T15:01:42.119Z,39.14
2022-08-24T15:04:37.486Z,39.41
2022-08-24T15:07:25.426Z,39.91
2022-08-24T15:09:54.533Z,38.74
2022-08-24T15:12:31.591Z,39.51
2022-08-24T15:15:04.722Z,39.55
2022-08-24T15:17:44.534Z,39.63
2022-08-24T15:20:20.189Z,39.54
2022-08-24T15:22:53.532Z,39.21
2022-08-24T15:25:33.802Z,38.87
2022-08-24T15:28:09.085Z,38.10
2022-08-24T15:30:40.073Z,38.62
2022-08-24T15:33:14.966Z,38.14
2022-08-24T15:35:46.223Z,38.80
2022-08-24T15:38:18.683Z,38.02
2022-08-24T15:40:47.562Z,38.30
2022-08-24T15:43:15.350Z,39.03
2022-08-24T15:45:47.041Z,38.73
2022-08-24T15:48:19.084Z,38.67
2022-08-24T15:50:49.057Z,38.58
2022-08-24T15:53:30.936Z,39.04
2022-08-24T15:56:01.305Z,39.54
2022-08-24T15:58:33.932Z,39.26
2022-08-24T16:01:37.070Z,39.08
2022-08-24T16:04:08.488Z,39.42
2022-08-24T16:06:39.837Z,39.55
2022-08-24T16:09:12.175Z,39.90
2022-08-24T16:11:42.634Z,39.70
2022-08-24T16:14:14.846Z,39.62
2022-08-24T16:16:45.095Z,40.05
2022-08-24T16:19:24.375Z,39.87
2022-08-24T16:21:55.858Z,39.76
2022-08-24T16:24:30.415Z,40.16
2022-08-24T16:27:01.534Z,39.89
2022-08-24T16:29:55.745Z,40.00
2022-08-24T16:32:30.274Z,39.89
2022-08-24T16:35:20.541Z,39.93
2022-08-24T16:37:48.253Z,40.25
2022-08-24T16:40:16.175Z,40.73
2022-08-24T16:42:43.991Z,40.28
2022-08-24T16:45:14.865Z,40.95
2022-08-24T16:47:42.492Z,40.70
2022-08-24T16:50:11.692Z,40.21
2022-08-24T16:52:40.892Z,40.35
2022-08-24T16:55:09.545Z,40.48
2022-08-24T16:57:43.589Z,40.65
2022-08-24T17:00:17.532Z,40.49
2022-08-24T17:02:48.173Z,40.96
2022-08-24T17:05:16.804Z,41.50
2022-08-24T17:07:48.742Z,41.21
2022-08-24T17:10:19.316Z,41.08
2022-08-24T17:12:49.835Z,41.55
2022-08-24T17:15:17.504Z,41.53
2022-08-24T17:17:49.392Z,42.20
2022-08-24T17:20:17.952Z,42.09
2022-08-24T17:22:47.065Z,42.51
2022-08-24T17:25:14.709Z,42.49
2022-08-24T17:27:42.596Z,42.55
2022-08-24T17:30:11.825Z,42.20
2022-08-24T17:32:39.467Z,42.27
2022-08-24T17:35:07.467Z,42.81
2022-08-24T17:37:35.317Z,42.79
2022-08-24T17:40:05.414Z,42.73
2022-08-24T17:42:50.061Z,42.92
2022-08-24T17:45:18.359Z,43.05
2022-08-24T17:47:46.240Z,43.10
2022-08-24T17:50:14.688Z,43.18
2022-08-24T17:52:42.869Z,43.30
2022-08-24T17:55:14.057Z,43.40
2022-08-24T17:57:48.766Z,43.63
2022-08-24T18:00:17.614Z,43.85
2022-08-24T18:02:45.330Z,43.77
2022-08-24T18:05:17.840Z,44.07
2022-08-24T18:07:53.661Z,44.28
2022-08-24T18:10:25.651Z,44.57
2022-08-24T18:12:53.502Z,44.59
2022-08-24T18:15:21.358Z,44.77
2022-08-24T18:17:52.569Z,44.81
2022-08-24T18:20:22.976Z,44.81
2022-08-24T18:22:53.784Z,45.08
2022-08-24T18:25:24.169Z,45.01
2022-08-24T18:27:54.364Z,45.08
2022-08-24T18:30:30.305Z,45.21
2022-08-24T18:32:59.622Z,45.43
2022-08-24T18:35:28.102Z,45.19
2022-08-24T18:37:55.721Z,45.20
2022-08-24T18:40:27.052Z,45.46
2022-08-24T18:43:00.996Z,45.38
2022-08-24T18:45:31.252Z,45.33
2022-08-24T18:47:59.015Z,45.44
2022-08-24T18:50:28.722Z,45.86
2022-08-24T18:52:56.521Z,46.18
2022-08-24T18:55:26.821Z,46.70
2022-08-24T18:57:54.703Z,46.70
2022-08-24T19:00:22.546Z,47.01
2022-08-24T19:02:50.332Z,47.22
2022-08-24T19:05:22.355Z,47.30
2022-08-24T19:07:51.442Z,47.46
2022-08-24T19:10:20.919Z,47.55
2022-08-24T19:12:53.048Z,47.16
2022-08-24T19:15:35.771Z,47.21
2022-08-24T19:18:09.636Z,47.25
2022-08-24T19:20:38.675Z,46.98
2022-08-24T19:23:09.367Z,47.53
2022-08-24T19:25:39.016Z,47.79
2022-08-24T19:28:08.798Z,47.64
2022-08-24T19:30:37.392Z,47.92
2022-08-24T19:33:10.404Z,48.31
2022-08-24T19:35:41.111Z,48.12
2022-08-24T19:38:09.085Z,48.79
2022-08-24T19:40:37.542Z,48.73
2022-08-24T19:43:08.642Z,48.83
2022-08-24T19:45:54.111Z,48.76
2022-08-24T19:48:23.178Z,49.25
2022-08-24T19:50:54.058Z,49.23
2022-08-24T19:53:22.609Z,49.67
2022-08-24T19:55:50.516Z,49.86
2022-08-24T19:58:24.086Z,49.69
2022-08-24T20:00:57.719Z,49.39
2022-08-24T20:03:25.759Z,49.58
2022-08-24T20:05:53.530Z,49.35
2022-08-24T20:08:21.737Z,49.37
2022-08-24T20:10:50.005Z,49.21
2022-08-24T20:13:17.651Z,49.30
2022-08-24T20:15:46.667Z,49.66
2022-08-24T20:18:15.246Z,49.92
2022-08-24T20:20:43.111Z,49.96
2022-08-24T20:23:10.819Z,49.66
2022-08-24T20:25:40.690Z,49.88
2022-08-24T20:30:57.869Z,49.62
2022-08-24T20:33:27.653Z,49.59
2022-08-24T20:35:56.126Z,49.46
2022-08-24T20:38:23.985Z,49.64
2022-08-24T20:40:52.062Z,49.97
2022-08-24T20:43:20.125Z,50.09
2022-08-24T20:45:47.887Z,50.08
2022-08-24T20:48:17.351Z,49.93
2022-08-24T20:50:45.010Z,49.83
2022-08-24T20:53:13.084Z,49.63
2022-08-24T20:55:41.705Z,49.86
2022-08-24T20:58:10.134Z,49.78
2022-08-24T21:00:40.900Z,49.84
2022-08-24T21:03:08.711Z,49.88
2022-08-24T21:05:38.989Z,50.26
2022-08-24T21:08:06.730Z,50.94
2022-08-24T21:10:34.475Z,51.46
2022-08-24T21:13:02.617Z,51.38
2022-08-24T21:15:30.349Z,51.57
2022-08-24T21:17:58.098Z,51.50
2022-08-24T21:20:26.155Z,51.63
2022-08-24T21:22:55.311Z,51.76
2022-08-24T21:25:23.089Z,51.99
2022-08-24T21:27:51.067Z,52.14
2022-08-24T21:30:20.573Z,52.01
2022-08-24T21:33:06.122Z,51.46
2022-08-24T21:35:34.160Z,51.72
2022-08-24T21:38:03.313Z,51.43
2022-08-24T21:40:31.296Z,51.50
2022-08-24T21:42:59.057Z,51.43
2022-08-24T21:45:27.822Z,51.24
2022-08-24T21:47:55.527Z,51.38
2022-08-24T21:50:25.695Z,51.57
2022-08-24T21:52:54.356Z,51.08
2022-08-24T21:55:24.026Z,51.33
2022-08-24T21:57:52.015Z,51.19
2022-08-24T22:00:21.581Z,51.14
2022-08-24T22:02:50.130Z,51.37
2022-08-24T22:05:18.395Z,51.29
2022-08-24T22:07:46.375Z,51.35
2022-08-24T22:10:14.374Z,51.48
2022-08-24T22:12:43.893Z,51.70
2022-08-24T22:15:14.406Z,51.78
2022-08-24T22:17:42.182Z,52.03
2022-08-24T22:20:15.148Z,52.26
2022-08-24T22:22:51.675Z,52.31
2022-08-24T22:25:19.723Z,52.51
2022-08-24T22:27:48.740Z,52.56
2022-08-24T22:30:18.846Z,52.66
2022-08-24T22:32:47.259Z,52.69
2022-08-24T22:35:15.210Z,52.67
2022-08-24T22:37:42.934Z,52.81
2022-08-24T22:40:12.664Z,53.27
2022-08-24T22:42:40.689Z,53.42
2022-08-24T22:45:12.073Z,53.12
2022-08-24T22:47:39.689Z,53.11
2022-08-24T22:50:08.752Z,53.09
2022-08-24T22:52:36.425Z,53.49
2022-08-24T22:55:05.586Z,53.62
2022-08-24T22:57:33.665Z,53.51
2022-08-24T23:00:01.341Z,53.95
2022-08-24T23:02:30.459Z,53.92
2022-08-24T23:04:58.175Z,54.18
2022-08-24T23:07:25.988Z,53.82
2022-08-24T23:09:53.594Z,54.22
2022-08-24T23:12:24.121Z,54.27
2022-08-24T23:14:52.720Z,54.18
2022-08-24T23:17:20.979Z,54.29
2022-08-24T23:20:01.604Z,54.55
2022-08-24T23:22:32.390Z,54.71
2022-08-24T23:25:01.460Z,54.94
2022-08-24T23:27:37.818Z,54.94
2022-08-24T23:30:08.247Z,54.54
2022-08-24T23:32:36.107Z,54.71
2022-08-24T23:35:06.162Z,54.43
2022-08-24T23:37:33.822Z,54.74
2022-08-24T23:40:01.855Z,54.28
2022-08-24T23:42:29.536Z,54.84
2022-08-24T23:44:57.524Z,54.72
2022-08-24T23:47:25.235Z,54.83
2022-08-24T23:49:52.971Z,54.98
2022-08-24T23:52:28.665Z,54.68
2022-08-24T23:55:19.905Z,54.82
2022-08-24T23:57:46.539Z,54.53
